sensor_id;sensor_type;location;lat;lon;timestamp;P1;durP1;ratioP1;P2;durP2;ratioP2
71312;SDS011;59104;44.738;20.612;2022-07-23T00:00:00;2.13;;;1.40;;
71312;SDS011;59104;44.738;20.612;2022-07-23T00:02:25;1.45;;;1.10;;
71312;SDS011;59104;44.738;20.612;2022-07-23T00:04:51;2.10;;;1.45;;
71312;SDS011;59104;44.738;20.612;2022-07-23T00:07:16;1.92;;;1.48;;
71312;SDS011;59104;44.738;20.612;2022-07-23T00:09:42;2.03;;;1.63;;
71312;SDS011;59104;44.738;20.612;2022-07-23T00:12:08;1.52;;;1.40;;
71312;SDS011;59104;44.738;20.612;2022-07-23T00:14:33;2.83;;;1.73;;
71312;SDS011;59104;44.738;20.612;2022-07-23T00:16:59;2.67;;;1.70;;
71312;SDS011;59104;44.738;20.612;2022-07-23T00:19:24;2.10;;;1.70;;
71312;SDS011;59104;44.738;20.612;2022-07-23T00:21:50;2.60;;;1.45;;
71312;SDS011;59104;44.738;20.612;2022-07-23T00:24:15;1.92;;;1.38;;
71312;SDS011;59104;44.738;20.612;2022-07-23T00:26:41;2.13;;;1.65;;
71312;SDS011;59104;44.738;20.612;2022-07-23T00:29:06;2.38;;;1.38;;
71312;SDS011;59104;44.738;20.612;2022-07-23T00:31:32;2.22;;;1.48;;
71312;SDS011;59104;44.738;20.612;2022-07-23T00:33:58;1.65;;;1.30;;
71312;SDS011;59104;44.738;20.612;2022-07-23T00:36:26;3.97;;;3.25;;
71312;SDS011;59104;44.738;20.612;2022-07-23T00:38:53;4.50;;;3.10;;
71312;SDS011;59104;44.738;20.612;2022-07-23T00:41:18;3.58;;;2.70;;
71312;SDS011;59104;44.738;20.612;2022-07-23T00:43:44;3.85;;;2.38;;
71312;SDS011;59104;44.738;20.612;2022-07-23T00:46:10;3.85;;;2.95;;
71312;SDS011;59104;44.738;20.612;2022-07-23T00:48:36;3.92;;;2.83;;
71312;SDS011;59104;44.738;20.612;2022-07-23T00:51:02;3.25;;;2.42;;
71312;SDS011;59104;44.738;20.612;2022-07-23T00:53:28;2.75;;;1.90;;
71312;SDS011;59104;44.738;20.612;2022-07-23T00:55:54;2.58;;;1.90;;
71312;SDS011;59104;44.738;20.612;2022-07-23T00:58:19;2.70;;;1.70;;
71312;SDS011;59104;44.738;20.612;2022-07-23T01:00:45;1.77;;;1.45;;
71312;SDS011;59104;44.738;20.612;2022-07-23T01:03:11;2.55;;;1.80;;
71312;SDS011;59104;44.738;20.612;2022-07-23T01:05:37;1.90;;;1.70;;
71312;SDS011;59104;44.738;20.612;2022-07-23T01:08:03;2.00;;;1.63;;
71312;SDS011;59104;44.738;20.612;2022-07-23T01:10:30;2.13;;;1.40;;
71312;SDS011;59104;44.738;20.612;2022-07-23T01:13:06;2.25;;;1.42;;
71312;SDS011;59104;44.738;20.612;2022-07-23T01:15:36;1.63;;;1.48;;
71312;SDS011;59104;44.738;20.612;2022-07-23T01:18:03;2.10;;;1.48;;
71312;SDS011;59104;44.738;20.612;2022-07-23T01:20:30;1.77;;;1.38;;
71312;SDS011;59104;44.738;20.612;2022-07-23T01:22:57;2.17;;;1.40;;
71312;SDS011;59104;44.738;20.612;2022-07-23T01:25:23;1.60;;;1.20;;
71312;SDS011;59104;44.738;20.612;2022-07-23T01:28:02;2.55;;;1.50;;
71312;SDS011;59104;44.738;20.612;2022-07-23T01:30:29;3.72;;;2.15;;
71312;SDS011;59104;44.738;20.612;2022-07-23T01:32:56;2.17;;;1.52;;
71312;SDS011;59104;44.738;20.612;2022-07-23T01:35:21;1.90;;;1.30;;
71312;SDS011;59104;44.738;20.612;2022-07-23T01:37:48;1.73;;;1.30;;
71312;SDS011;59104;44.738;20.612;2022-07-23T01:40:15;1.67;;;1.38;;
71312;SDS011;59104;44.738;20.612;2022-07-23T01:42:41;2.50;;;1.40;;
71312;SDS011;59104;44.738;20.612;2022-07-23T01:45:07;1.17;;;1.05;;
71312;SDS011;59104;44.738;20.612;2022-07-23T01:47:33;1.95;;;1.40;;
71312;SDS011;59104;44.738;20.612;2022-07-23T01:49:59;1.60;;;1.20;;
71312;SDS011;59104;44.738;20.612;2022-07-23T01:52:43;2.03;;;1.58;;
71312;SDS011;59104;44.738;20.612;2022-07-23T01:55:09;2.35;;;1.55;;
71312;SDS011;59104;44.738;20.612;2022-07-23T01:57:36;1.83;;;1.63;;
71312;SDS011;59104;44.738;20.612;2022-07-23T02:00:02;1.38;;;1.10;;
71312;SDS011;59104;44.738;20.612;2022-07-23T02:02:38;3.38;;;2.35;;
71312;SDS011;59104;44.738;20.612;2022-07-23T02:05:04;3.45;;;2.22;;
71312;SDS011;59104;44.738;20.612;2022-07-23T02:07:30;3.33;;;2.28;;
71312;SDS011;59104;44.738;20.612;2022-07-23T02:09:57;3.20;;;2.17;;
71312;SDS011;59104;44.738;20.612;2022-07-23T02:12:23;3.13;;;2.00;;
71312;SDS011;59104;44.738;20.612;2022-07-23T02:14:48;2.08;;;1.75;;
71312;SDS011;59104;44.738;20.612;2022-07-23T02:17:14;2.42;;;1.75;;
71312;SDS011;59104;44.738;20.612;2022-07-23T02:19:39;2.50;;;1.70;;
71312;SDS011;59104;44.738;20.612;2022-07-23T02:22:05;2.20;;;1.80;;
71312;SDS011;59104;44.738;20.612;2022-07-23T02:24:30;1.77;;;1.55;;
71312;SDS011;59104;44.738;20.612;2022-07-23T02:26:56;1.95;;;1.50;;
71312;SDS011;59104;44.738;20.612;2022-07-23T02:29:22;3.15;;;1.50;;
71312;SDS011;59104;44.738;20.612;2022-07-23T02:31:47;1.70;;;1.40;;
71312;SDS011;59104;44.738;20.612;2022-07-23T02:34:13;1.92;;;1.55;;
71312;SDS011;59104;44.738;20.612;2022-07-23T02:36:39;1.88;;;1.50;;
71312;SDS011;59104;44.738;20.612;2022-07-23T02:39:05;1.65;;;1.30;;
71312;SDS011;59104;44.738;20.612;2022-07-23T02:41:32;2.33;;;1.60;;
71312;SDS011;59104;44.738;20.612;2022-07-23T02:43:58;1.55;;;1.30;;
71312;SDS011;59104;44.738;20.612;2022-07-23T02:46:23;1.58;;;1.40;;
71312;SDS011;59104;44.738;20.612;2022-07-23T02:48:49;2.08;;;1.52;;
71312;SDS011;59104;44.738;20.612;2022-07-23T02:51:14;2.53;;;1.75;;
71312;SDS011;59104;44.738;20.612;2022-07-23T02:53:47;1.85;;;1.40;;
71312;SDS011;59104;44.738;20.612;2022-07-23T02:56:13;1.95;;;1.70;;
71312;SDS011;59104;44.738;20.612;2022-07-23T02:58:40;1.77;;;1.35;;
71312;SDS011;59104;44.738;20.612;2022-07-23T03:01:06;1.77;;;1.35;;
71312;SDS011;59104;44.738;20.612;2022-07-23T03:03:32;2.58;;;1.60;;
71312;SDS011;59104;44.738;20.612;2022-07-23T03:05:58;1.52;;;1.30;;
71312;SDS011;59104;44.738;20.612;2022-07-23T03:08:23;2.30;;;1.30;;
71312;SDS011;59104;44.738;20.612;2022-07-23T03:10:50;1.40;;;1.13;;
71312;SDS011;59104;44.738;20.612;2022-07-23T03:13:16;2.30;;;1.60;;
71312;SDS011;59104;44.738;20.612;2022-07-23T03:15:42;2.00;;;1.40;;
71312;SDS011;59104;44.738;20.612;2022-07-23T03:18:07;2.17;;;1.35;;
71312;SDS011;59104;44.738;20.612;2022-07-23T03:20:33;2.30;;;1.48;;
71312;SDS011;59104;44.738;20.612;2022-07-23T03:22:59;2.33;;;1.48;;
71312;SDS011;59104;44.738;20.612;2022-07-23T03:25:25;2.95;;;1.70;;
71312;SDS011;59104;44.738;20.612;2022-07-23T03:27:51;2.33;;;1.63;;
71312;SDS011;59104;44.738;20.612;2022-07-23T03:30:17;2.50;;;1.55;;
71312;SDS011;59104;44.738;20.612;2022-07-23T03:32:42;1.55;;;1.20;;
71312;SDS011;59104;44.738;20.612;2022-07-23T03:35:08;2.28;;;1.60;;
71312;SDS011;59104;44.738;20.612;2022-07-23T03:37:36;2.08;;;1.50;;
71312;SDS011;59104;44.738;20.612;2022-07-23T03:40:02;2.20;;;1.55;;
71312;SDS011;59104;44.738;20.612;2022-07-23T03:42:28;1.65;;;1.55;;
71312;SDS011;59104;44.738;20.612;2022-07-23T03:44:54;2.30;;;1.65;;
71312;SDS011;59104;44.738;20.612;2022-07-23T03:47:20;2.03;;;1.60;;
71312;SDS011;59104;44.738;20.612;2022-07-23T03:49:47;2.65;;;1.67;;
71312;SDS011;59104;44.738;20.612;2022-07-23T03:52:13;2.15;;;1.63;;
71312;SDS011;59104;44.738;20.612;2022-07-23T03:54:39;1.92;;;1.60;;
71312;SDS011;59104;44.738;20.612;2022-07-23T03:57:04;2.03;;;1.55;;
71312;SDS011;59104;44.738;20.612;2022-07-23T03:59:30;2.67;;;1.88;;
71312;SDS011;59104;44.738;20.612;2022-07-23T04:01:56;2.20;;;1.50;;
71312;SDS011;59104;44.738;20.612;2022-07-23T04:04:22;1.73;;;1.40;;
71312;SDS011;59104;44.738;20.612;2022-07-23T04:06:47;2.67;;;1.63;;
71312;SDS011;59104;44.738;20.612;2022-07-23T04:09:14;1.75;;;1.45;;
71312;SDS011;59104;44.738;20.612;2022-07-23T04:11:40;2.13;;;1.70;;
71312;SDS011;59104;44.738;20.612;2022-07-23T04:14:06;1.42;;;1.33;;
71312;SDS011;59104;44.738;20.612;2022-07-23T04:16:33;2.25;;;1.70;;
71312;SDS011;59104;44.738;20.612;2022-07-23T04:18:58;1.63;;;1.45;;
71312;SDS011;59104;44.738;20.612;2022-07-23T04:21:27;1.88;;;1.60;;
71312;SDS011;59104;44.738;20.612;2022-07-23T04:23:54;1.80;;;1.40;;
71312;SDS011;59104;44.738;20.612;2022-07-23T04:26:19;2.53;;;1.73;;
71312;SDS011;59104;44.738;20.612;2022-07-23T04:28:46;2.97;;;1.52;;
71312;SDS011;59104;44.738;20.612;2022-07-23T04:31:12;2.03;;;1.58;;
71312;SDS011;59104;44.738;20.612;2022-07-23T04:33:38;2.47;;;1.33;;
71312;SDS011;59104;44.738;20.612;2022-07-23T04:36:06;1.50;;;1.25;;
71312;SDS011;59104;44.738;20.612;2022-07-23T04:38:31;2.50;;;1.70;;
71312;SDS011;59104;44.738;20.612;2022-07-23T04:41:00;1.67;;;1.48;;
71312;SDS011;59104;44.738;20.612;2022-07-23T04:43:26;2.50;;;1.77;;
71312;SDS011;59104;44.738;20.612;2022-07-23T04:45:53;1.98;;;1.48;;
71312;SDS011;59104;44.738;20.612;2022-07-23T04:48:18;1.90;;;1.55;;
71312;SDS011;59104;44.738;20.612;2022-07-23T04:50:45;2.50;;;1.52;;
71312;SDS011;59104;44.738;20.612;2022-07-23T04:53:18;1.80;;;1.48;;
71312;SDS011;59104;44.738;20.612;2022-07-23T04:55:46;2.63;;;1.90;;
71312;SDS011;59104;44.738;20.612;2022-07-23T04:58:12;2.03;;;1.60;;
71312;SDS011;59104;44.738;20.612;2022-07-23T05:00:38;3.55;;;1.90;;
71312;SDS011;59104;44.738;20.612;2022-07-23T05:03:03;2.35;;;1.60;;
71312;SDS011;59104;44.738;20.612;2022-07-23T05:05:29;2.15;;;1.80;;
71312;SDS011;59104;44.738;20.612;2022-07-23T05:08:00;2.55;;;1.70;;
71312;SDS011;59104;44.738;20.612;2022-07-23T05:10:27;3.20;;;2.17;;
71312;SDS011;59104;44.738;20.612;2022-07-23T05:12:53;3.75;;;2.25;;
71312;SDS011;59104;44.738;20.612;2022-07-23T05:15:19;3.13;;;2.55;;
71312;SDS011;59104;44.738;20.612;2022-07-23T05:17:45;3.72;;;2.35;;
71312;SDS011;59104;44.738;20.612;2022-07-23T05:20:15;3.90;;;2.70;;
71312;SDS011;59104;44.738;20.612;2022-07-23T05:22:40;5.07;;;2.83;;
71312;SDS011;59104;44.738;20.612;2022-07-23T05:25:06;3.50;;;2.60;;
71312;SDS011;59104;44.738;20.612;2022-07-23T05:27:33;4.38;;;2.35;;
71312;SDS011;59104;44.738;20.612;2022-07-23T05:29:59;3.72;;;2.65;;
71312;SDS011;59104;44.738;20.612;2022-07-23T05:32:25;3.40;;;2.40;;
71312;SDS011;59104;44.738;20.612;2022-07-23T05:35:01;4.45;;;2.80;;
71312;SDS011;59104;44.738;20.612;2022-07-23T05:37:27;4.03;;;2.75;;
71312;SDS011;59104;44.738;20.612;2022-07-23T05:39:52;3.85;;;2.35;;
71312;SDS011;59104;44.738;20.612;2022-07-23T05:42:18;3.65;;;2.35;;
71312;SDS011;59104;44.738;20.612;2022-07-23T05:44:43;2.95;;;2.03;;
71312;SDS011;59104;44.738;20.612;2022-07-23T05:47:09;3.20;;;2.63;;
71312;SDS011;59104;44.738;20.612;2022-07-23T05:49:36;3.50;;;2.70;;
71312;SDS011;59104;44.738;20.612;2022-07-23T05:52:25;4.53;;;3.03;;
71312;SDS011;59104;44.738;20.612;2022-07-23T05:55:11;3.85;;;3.08;;
71312;SDS011;59104;44.738;20.612;2022-07-23T05:57:38;4.45;;;3.60;;
71312;SDS011;59104;44.738;20.612;2022-07-23T06:00:06;4.78;;;3.63;;
71312;SDS011;59104;44.738;20.612;2022-07-23T06:02:39;6.70;;;4.57;;
71312;SDS011;59104;44.738;20.612;2022-07-23T06:05:06;7.50;;;3.90;;
71312;SDS011;59104;44.738;20.612;2022-07-23T06:07:33;5.95;;;4.60;;
71312;SDS011;59104;44.738;20.612;2022-07-23T06:09:59;6.65;;;4.10;;
71312;SDS011;59104;44.738;20.612;2022-07-23T06:12:25;6.35;;;3.58;;
71312;SDS011;59104;44.738;20.612;2022-07-23T06:14:51;5.00;;;3.50;;
71312;SDS011;59104;44.738;20.612;2022-07-23T06:17:17;5.95;;;3.53;;
71312;SDS011;59104;44.738;20.612;2022-07-23T06:19:43;6.57;;;4.78;;
71312;SDS011;59104;44.738;20.612;2022-07-23T06:22:09;6.25;;;4.43;;
71312;SDS011;59104;44.738;20.612;2022-07-23T06:24:35;5.15;;;4.07;;
71312;SDS011;59104;44.738;20.612;2022-07-23T06:27:01;5.55;;;4.40;;
71312;SDS011;59104;44.738;20.612;2022-07-23T06:29:26;5.15;;;3.85;;
71312;SDS011;59104;44.738;20.612;2022-07-23T06:31:52;7.57;;;4.90;;
71312;SDS011;59104;44.738;20.612;2022-07-23T06:34:18;7.22;;;4.88;;
71312;SDS011;59104;44.738;20.612;2022-07-23T06:36:43;10.38;;;4.80;;
71312;SDS011;59104;44.738;20.612;2022-07-23T06:39:09;6.75;;;4.00;;
71312;SDS011;59104;44.738;20.612;2022-07-23T06:41:35;7.95;;;4.03;;
71312;SDS011;59104;44.738;20.612;2022-07-23T06:44:01;6.03;;;4.25;;
71312;SDS011;59104;44.738;20.612;2022-07-23T06:46:29;6.70;;;4.28;;
71312;SDS011;59104;44.738;20.612;2022-07-23T06:48:54;6.78;;;4.95;;
71312;SDS011;59104;44.738;20.612;2022-07-23T06:51:20;6.28;;;4.25;;
71312;SDS011;59104;44.738;20.612;2022-07-23T06:53:46;7.85;;;5.00;;
71312;SDS011;59104;44.738;20.612;2022-07-23T06:56:12;10.50;;;5.32;;
71312;SDS011;59104;44.738;20.612;2022-07-23T06:58:38;9.65;;;5.50;;
71312;SDS011;59104;44.738;20.612;2022-07-23T07:01:04;10.32;;;5.35;;
71312;SDS011;59104;44.738;20.612;2022-07-23T07:03:30;11.45;;;6.05;;
71312;SDS011;59104;44.738;20.612;2022-07-23T07:05:55;11.18;;;6.13;;
71312;SDS011;59104;44.738;20.612;2022-07-23T07:08:22;12.27;;;6.18;;
71312;SDS011;59104;44.738;20.612;2022-07-23T07:10:48;8.05;;;5.97;;
71312;SDS011;59104;44.738;20.612;2022-07-23T07:13:14;8.80;;;5.43;;
71312;SDS011;59104;44.738;20.612;2022-07-23T07:15:39;7.78;;;5.20;;
71312;SDS011;59104;44.738;20.612;2022-07-23T07:18:05;6.97;;;5.70;;
71312;SDS011;59104;44.738;20.612;2022-07-23T07:20:31;9.40;;;5.45;;
71312;SDS011;59104;44.738;20.612;2022-07-23T07:22:56;8.07;;;4.85;;
71312;SDS011;59104;44.738;20.612;2022-07-23T07:25:22;9.10;;;5.65;;
71312;SDS011;59104;44.738;20.612;2022-07-23T07:27:48;10.52;;;5.00;;
71312;SDS011;59104;44.738;20.612;2022-07-23T07:30:13;11.02;;;5.80;;
71312;SDS011;59104;44.738;20.612;2022-07-23T07:32:40;17.02;;;6.95;;
71312;SDS011;59104;44.738;20.612;2022-07-23T07:35:05;13.73;;;7.07;;
71312;SDS011;59104;44.738;20.612;2022-07-23T07:37:32;13.32;;;6.85;;
71312;SDS011;59104;44.738;20.612;2022-07-23T07:39:57;12.07;;;6.90;;
71312;SDS011;59104;44.738;20.612;2022-07-23T07:42:23;10.57;;;6.75;;
71312;SDS011;59104;44.738;20.612;2022-07-23T07:44:48;10.93;;;6.20;;
71312;SDS011;59104;44.738;20.612;2022-07-23T07:47:14;9.25;;;6.45;;
71312;SDS011;59104;44.738;20.612;2022-07-23T07:49:43;14.40;;;7.93;;
71312;SDS011;59104;44.738;20.612;2022-07-23T07:52:09;19.08;;;7.75;;
71312;SDS011;59104;44.738;20.612;2022-07-23T07:54:35;17.65;;;8.07;;
71312;SDS011;59104;44.738;20.612;2022-07-23T07:57:01;16.90;;;8.25;;
71312;SDS011;59104;44.738;20.612;2022-07-23T07:59:27;9.68;;;6.80;;
71312;SDS011;59104;44.738;20.612;2022-07-23T08:01:53;19.70;;;9.02;;
71312;SDS011;59104;44.738;20.612;2022-07-23T08:04:19;12.98;;;8.15;;
71312;SDS011;59104;44.738;20.612;2022-07-23T08:06:44;13.48;;;7.25;;
71312;SDS011;59104;44.738;20.612;2022-07-23T08:09:10;14.68;;;8.23;;
71312;SDS011;59104;44.738;20.612;2022-07-23T08:11:36;9.82;;;6.53;;
71312;SDS011;59104;44.738;20.612;2022-07-23T08:14:01;10.98;;;5.93;;
71312;SDS011;59104;44.738;20.612;2022-07-23T08:16:27;10.95;;;5.45;;
71312;SDS011;59104;44.738;20.612;2022-07-23T08:18:53;12.55;;;5.72;;
71312;SDS011;59104;44.738;20.612;2022-07-23T08:21:19;8.27;;;5.25;;
71312;SDS011;59104;44.738;20.612;2022-07-23T08:23:44;7.70;;;5.43;;
71312;SDS011;59104;44.738;20.612;2022-07-23T08:26:10;7.18;;;5.28;;
71312;SDS011;59104;44.738;20.612;2022-07-23T08:28:36;9.52;;;5.35;;
71312;SDS011;59104;44.738;20.612;2022-07-23T08:31:02;9.55;;;5.50;;
71312;SDS011;59104;44.738;20.612;2022-07-23T08:33:28;9.52;;;5.88;;
71312;SDS011;59104;44.738;20.612;2022-07-23T08:35:54;7.25;;;5.05;;
71312;SDS011;59104;44.738;20.612;2022-07-23T08:38:20;9.68;;;5.68;;
71312;SDS011;59104;44.738;20.612;2022-07-23T08:40:48;7.85;;;5.32;;
71312;SDS011;59104;44.738;20.612;2022-07-23T08:43:16;10.85;;;6.13;;
71312;SDS011;59104;44.738;20.612;2022-07-23T08:45:48;10.57;;;5.95;;
71312;SDS011;59104;44.738;20.612;2022-07-23T08:48:21;9.57;;;5.55;;
71312;SDS011;59104;44.738;20.612;2022-07-23T08:53:17;8.25;;;4.82;;
71312;SDS011;59104;44.738;20.612;2022-07-23T08:55:48;9.13;;;5.00;;
71312;SDS011;59104;44.738;20.612;2022-07-23T08:58:18;7.13;;;4.82;;
71312;SDS011;59104;44.738;20.612;2022-07-23T09:00:44;10.57;;;4.45;;
71312;SDS011;59104;44.738;20.612;2022-07-23T09:05:44;9.90;;;5.43;;
71312;SDS011;59104;44.738;20.612;2022-07-23T09:08:11;7.55;;;5.28;;
71312;SDS011;59104;44.738;20.612;2022-07-23T09:15:50;6.15;;;4.63;;
71312;SDS011;59104;44.738;20.612;2022-07-23T09:18:17;8.35;;;4.30;;
71312;SDS011;59104;44.738;20.612;2022-07-23T09:20:43;7.95;;;4.70;;
71312;SDS011;59104;44.738;20.612;2022-07-23T09:23:09;8.82;;;4.45;;
71312;SDS011;59104;44.738;20.612;2022-07-23T09:25:34;6.78;;;4.05;;
71312;SDS011;59104;44.738;20.612;2022-07-23T09:28:00;8.27;;;4.53;;
71312;SDS011;59104;44.738;20.612;2022-07-23T09:30:29;6.97;;;4.28;;
71312;SDS011;59104;44.738;20.612;2022-07-23T09:33:15;6.30;;;4.53;;
71312;SDS011;59104;44.738;20.612;2022-07-23T09:35:48;4.90;;;3.60;;
71312;SDS011;59104;44.738;20.612;2022-07-23T09:38:16;5.35;;;4.03;;
71312;SDS011;59104;44.738;20.612;2022-07-23T09:40:43;6.93;;;3.70;;
71312;SDS011;59104;44.738;20.612;2022-07-23T09:43:10;6.55;;;3.78;;
71312;SDS011;59104;44.738;20.612;2022-07-23T09:45:36;9.48;;;4.60;;
71312;SDS011;59104;44.738;20.612;2022-07-23T09:48:14;5.88;;;4.13;;
71312;SDS011;59104;44.738;20.612;2022-07-23T09:50:41;5.95;;;3.45;;
71312;SDS011;59104;44.738;20.612;2022-07-23T09:53:07;5.22;;;3.83;;
71312;SDS011;59104;44.738;20.612;2022-07-23T09:55:34;7.53;;;4.13;;
71312;SDS011;59104;44.738;20.612;2022-07-23T09:58:07;8.13;;;4.28;;
71312;SDS011;59104;44.738;20.612;2022-07-23T10:00:38;7.95;;;4.22;;
71312;SDS011;59104;44.738;20.612;2022-07-23T10:03:04;9.63;;;4.57;;
71312;SDS011;59104;44.738;20.612;2022-07-23T10:05:40;4.93;;;3.45;;
71312;SDS011;59104;44.738;20.612;2022-07-23T10:08:26;6.28;;;4.00;;
71312;SDS011;59104;44.738;20.612;2022-07-23T10:11:12;5.22;;;3.97;;
71312;SDS011;59104;44.738;20.612;2022-07-23T10:14:01;5.53;;;4.05;;
71312;SDS011;59104;44.738;20.612;2022-07-23T10:16:52;5.63;;;3.83;;
71312;SDS011;59104;44.738;20.612;2022-07-23T10:19:18;3.80;;;3.38;;
71312;SDS011;59104;44.738;20.612;2022-07-23T10:21:49;5.40;;;3.63;;
71312;SDS011;59104;44.738;20.612;2022-07-23T10:29:55;4.45;;;3.85;;
71312;SDS011;59104;44.738;20.612;2022-07-23T10:37:45;4.38;;;3.30;;
71312;SDS011;59104;44.738;20.612;2022-07-23T10:40:15;4.20;;;3.40;;
71312;SDS011;59104;44.738;20.612;2022-07-23T10:42:47;4.57;;;3.55;;
71312;SDS011;59104;44.738;20.612;2022-07-23T10:45:35;4.25;;;3.25;;
71312;SDS011;59104;44.738;20.612;2022-07-23T10:48:26;3.38;;;3.00;;
71312;SDS011;59104;44.738;20.612;2022-07-23T10:53:55;4.78;;;3.38;;
71312;SDS011;59104;44.738;20.612;2022-07-23T10:59:29;5.03;;;3.75;;
71312;SDS011;59104;44.738;20.612;2022-07-23T11:01:54;4.80;;;3.50;;
71312;SDS011;59104;44.738;20.612;2022-07-23T11:04:48;6.00;;;3.65;;
71312;SDS011;59104;44.738;20.612;2022-07-23T11:07:16;4.13;;;3.35;;
71312;SDS011;59104;44.738;20.612;2022-07-23T11:09:42;4.13;;;3.40;;
71312;SDS011;59104;44.738;20.612;2022-07-23T11:17:31;7.68;;;3.88;;
71312;SDS011;59104;44.738;20.612;2022-07-23T11:22:38;5.40;;;3.58;;
71312;SDS011;59104;44.738;20.612;2022-07-23T11:25:04;10.38;;;3.60;;
71312;SDS011;59104;44.738;20.612;2022-07-23T11:27:37;5.95;;;4.10;;
71312;SDS011;59104;44.738;20.612;2022-07-23T11:30:08;4.22;;;3.75;;
71312;SDS011;59104;44.738;20.612;2022-07-23T11:32:36;4.30;;;3.90;;
71312;SDS011;59104;44.738;20.612;2022-07-23T11:35:26;5.35;;;3.88;;
71312;SDS011;59104;44.738;20.612;2022-07-23T11:38:38;3.97;;;3.40;;
71312;SDS011;59104;44.738;20.612;2022-07-23T11:40:40;4.20;;;3.58;;
71312;SDS011;59104;44.738;20.612;2022-07-23T11:43:09;5.22;;;3.72;;
71312;SDS011;59104;44.738;20.612;2022-07-23T11:45:43;5.32;;;3.50;;
71312;SDS011;59104;44.738;20.612;2022-07-23T11:48:17;4.65;;;3.70;;
71312;SDS011;59104;44.738;20.612;2022-07-23T11:50:48;4.47;;;3.60;;
71312;SDS011;59104;44.738;20.612;2022-07-23T11:53:27;5.68;;;3.90;;
71312;SDS011;59104;44.738;20.612;2022-07-23T11:56:05;6.05;;;3.85;;
71312;SDS011;59104;44.738;20.612;2022-07-23T11:58:32;3.60;;;3.00;;
71312;SDS011;59104;44.738;20.612;2022-07-23T12:00:58;4.15;;;3.50;;
71312;SDS011;59104;44.738;20.612;2022-07-23T12:03:24;4.03;;;3.65;;
71312;SDS011;59104;44.738;20.612;2022-07-23T12:05:49;5.65;;;3.67;;
71312;SDS011;59104;44.738;20.612;2022-07-23T12:08:21;7.05;;;3.88;;
71312;SDS011;59104;44.738;20.612;2022-07-23T12:10:47;3.83;;;3.42;;
71312;SDS011;59104;44.738;20.612;2022-07-23T12:13:14;5.20;;;3.55;;
71312;SDS011;59104;44.738;20.612;2022-07-23T12:15:42;4.65;;;4.18;;
71312;SDS011;59104;44.738;20.612;2022-07-23T12:18:09;4.15;;;3.75;;
71312;SDS011;59104;44.738;20.612;2022-07-23T12:20:38;4.15;;;3.75;;
71312;SDS011;59104;44.738;20.612;2022-07-23T12:23:07;4.25;;;3.85;;
71312;SDS011;59104;44.738;20.612;2022-07-23T12:25:34;6.35;;;4.40;;
71312;SDS011;59104;44.738;20.612;2022-07-23T12:30:33;6.68;;;4.20;;
71312;SDS011;59104;44.738;20.612;2022-07-23T12:33:03;5.88;;;4.57;;
71312;SDS011;59104;44.738;20.612;2022-07-23T12:35:30;5.00;;;3.92;;
71312;SDS011;59104;44.738;20.612;2022-07-23T12:38:00;8.80;;;4.70;;
71312;SDS011;59104;44.738;20.612;2022-07-23T12:40:41;5.00;;;3.80;;
71312;SDS011;59104;44.738;20.612;2022-07-23T12:43:18;4.28;;;3.88;;
71312;SDS011;59104;44.738;20.612;2022-07-23T12:45:51;6.45;;;4.00;;
71312;SDS011;59104;44.738;20.612;2022-07-23T12:48:35;4.70;;;4.00;;
71312;SDS011;59104;44.738;20.612;2022-07-23T12:51:06;5.35;;;3.55;;
71312;SDS011;59104;44.738;20.612;2022-07-23T12:53:39;5.90;;;3.88;;
71312;SDS011;59104;44.738;20.612;2022-07-23T12:56:14;4.13;;;3.55;;
71312;SDS011;59104;44.738;20.612;2022-07-23T13:01:08;4.43;;;4.03;;
71312;SDS011;59104;44.738;20.612;2022-07-23T13:03:41;7.78;;;4.38;;
71312;SDS011;59104;44.738;20.612;2022-07-23T13:06:10;4.65;;;4.20;;
71312;SDS011;59104;44.738;20.612;2022-07-23T13:08:37;5.93;;;5.30;;
71312;SDS011;59104;44.738;20.612;2022-07-23T13:11:05;4.40;;;4.00;;
71312;SDS011;59104;44.738;20.612;2022-07-23T13:13:33;8.57;;;5.15;;
71312;SDS011;59104;44.738;20.612;2022-07-23T13:16:00;8.25;;;4.55;;
71312;SDS011;59104;44.738;20.612;2022-07-23T13:18:27;5.85;;;5.03;;
71312;SDS011;59104;44.738;20.612;2022-07-23T13:20:53;6.38;;;5.78;;
71312;SDS011;59104;44.738;20.612;2022-07-23T13:23:20;6.43;;;4.88;;
71312;SDS011;59104;44.738;20.612;2022-07-23T13:25:46;5.50;;;5.00;;
71312;SDS011;59104;44.738;20.612;2022-07-23T13:28:13;4.65;;;4.13;;
71312;SDS011;59104;44.738;20.612;2022-07-23T13:30:40;5.22;;;4.72;;
71312;SDS011;59104;44.738;20.612;2022-07-23T13:33:07;5.90;;;5.00;;
71312;SDS011;59104;44.738;20.612;2022-07-23T13:35:33;5.93;;;5.10;;
71312;SDS011;59104;44.738;20.612;2022-07-23T13:38:01;5.40;;;4.90;;
71312;SDS011;59104;44.738;20.612;2022-07-23T13:40:28;6.57;;;4.68;;
71312;SDS011;59104;44.738;20.612;2022-07-23T13:42:54;4.40;;;4.00;;
71312;SDS011;59104;44.738;20.612;2022-07-23T13:45:19;5.05;;;3.97;;
71312;SDS011;59104;44.738;20.612;2022-07-23T13:47:45;4.57;;;4.18;;
71312;SDS011;59104;44.738;20.612;2022-07-23T13:50:11;4.53;;;3.90;;
71312;SDS011;59104;44.738;20.612;2022-07-23T13:52:36;4.10;;;3.78;;
71312;SDS011;59104;44.738;20.612;2022-07-23T13:55:03;4.20;;;3.70;;
71312;SDS011;59104;44.738;20.612;2022-07-23T13:57:31;5.45;;;4.07;;
71312;SDS011;59104;44.738;20.612;2022-07-23T13:59:57;5.70;;;3.92;;
71312;SDS011;59104;44.738;20.612;2022-07-23T14:02:22;4.22;;;3.92;;
71312;SDS011;59104;44.738;20.612;2022-07-23T14:04:48;4.32;;;4.03;;
71312;SDS011;59104;44.738;20.612;2022-07-23T14:07:14;3.67;;;3.42;;
71312;SDS011;59104;44.738;20.612;2022-07-23T14:09:40;4.85;;;3.70;;
71312;SDS011;59104;44.738;20.612;2022-07-23T14:12:06;5.00;;;4.38;;
71312;SDS011;59104;44.738;20.612;2022-07-23T14:14:32;4.50;;;4.20;;
71312;SDS011;59104;44.738;20.612;2022-07-23T14:16:58;4.47;;;4.07;;
71312;SDS011;59104;44.738;20.612;2022-07-23T14:19:23;5.63;;;4.30;;
71312;SDS011;59104;44.738;20.612;2022-07-23T14:21:49;5.10;;;3.90;;
71312;SDS011;59104;44.738;20.612;2022-07-23T14:24:15;4.50;;;4.20;;
71312;SDS011;59104;44.738;20.612;2022-07-23T14:26:41;5.10;;;4.70;;
71312;SDS011;59104;44.738;20.612;2022-07-23T14:29:07;4.40;;;4.05;;
71312;SDS011;59104;44.738;20.612;2022-07-23T14:31:33;4.15;;;3.78;;
71312;SDS011;59104;44.738;20.612;2022-07-23T14:33:58;4.63;;;4.25;;
71312;SDS011;59104;44.738;20.612;2022-07-23T14:36:24;5.28;;;4.40;;
71312;SDS011;59104;44.738;20.612;2022-07-23T14:38:50;5.25;;;3.88;;
71312;SDS011;59104;44.738;20.612;2022-07-23T14:41:16;4.18;;;3.65;;
71312;SDS011;59104;44.738;20.612;2022-07-23T14:43:42;4.38;;;3.83;;
71312;SDS011;59104;44.738;20.612;2022-07-23T14:46:08;4.07;;;3.78;;
71312;SDS011;59104;44.738;20.612;2022-07-23T14:48:36;3.70;;;3.50;;
71312;SDS011;59104;44.738;20.612;2022-07-23T14:51:02;5.40;;;3.90;;
71312;SDS011;59104;44.738;20.612;2022-07-23T14:53:28;3.95;;;3.72;;
71312;SDS011;59104;44.738;20.612;2022-07-23T14:55:54;10.75;;;4.05;;
71312;SDS011;59104;44.738;20.612;2022-07-23T14:58:22;4.72;;;4.40;;
71312;SDS011;59104;44.738;20.612;2022-07-23T15:00:48;4.80;;;4.40;;
71312;SDS011;59104;44.738;20.612;2022-07-23T15:03:13;5.00;;;4.50;;
71312;SDS011;59104;44.738;20.612;2022-07-23T15:05:39;4.70;;;4.35;;
71312;SDS011;59104;44.738;20.612;2022-07-23T15:08:05;4.35;;;4.05;;
71312;SDS011;59104;44.738;20.612;2022-07-23T15:10:30;4.63;;;4.22;;
71312;SDS011;59104;44.738;20.612;2022-07-23T15:12:56;4.88;;;4.50;;
71312;SDS011;59104;44.738;20.612;2022-07-23T15:15:21;4.60;;;4.00;;